Marion, OH

8:49 PM EDT on July 30, 2015 (GMT -0400)
Marion Municipal | | Change Station
CLOSE
Current Station
Airport
Location: Marion,
Elevation: 994 ft
Nearby Weather Stations

Elev 994 ft 40.62 °N, 83.06 °W | Updated 56 minutes ago

Clear
Clear
79 °F
Feels Like 79 °F
N
8
Wind Variable Wind from NW

Today
High -- | Low -- °F
--% Chance of Precip.
Yesterday
High -- | Low -- °F
Precip. -- in
6:27 AM 8:49 PM
Full, 100% visible
Pressure 29.99 in
Visibility 10.0 miles
Clouds Clear
Dew Point 57 °F
Humidity 47%
Rainfall 0.00 in
Snow Depth Not available.
UV 0 out of 12
Pollen 6.70 out of 12
Air Quality Not available.
Flu Activity Not available.
METAR KMNN 302353Z AUTO 31007KT 10SM CLR 26/14 A3000 RMK AO2 SLP153 T02610139 10289 20261 56003 TSNO

More Conditions Fewer Conditions

Pressure 29.99 in
Visibility 10.0 miles
Clouds Clear
Dew Point 57 °F
Humidity 47%
Rainfall 0.00 in
Snow Depth Not available.
UV 0 out of 12
Pollen 6.70 out of 12
Air Quality Not available.
Flu Activity Not available.
METAR KMNN 302353Z AUTO 31007KT 10SM CLR 26/14 A3000 RMK AO2 SLP153 T02610139 10289 20261 56003 TSNO

More Conditions Fewer Conditions

10-Day Weather Forecast

×

Almanac

Astronomy

Jul. 30, 2015 Rise Set
Actual Time
Civil Twilight
Nautical Twilight
Astronomical Twilight
Moon
Length of Visible Light
Length of Day
Tomorrow will be .
, % of the Moon is Illuminated

Today's Extremes

State Highs State Lows

Community

WunderPhotos

Upload Photos

1,842,551 photos uploaded!

WunderBlogs® & News

Nearby

Air Quality

  Air Quality AQ Index Pollutant
Not available.

Snow Depth

Station Depth Elevation

Earthquake Activity

City Distance Mag. Time & Date
Minimum magnitude displayed is 2.5.

Coastal Water Temperatures

Place Temperature

Stations

Nearby Weather Stations

Station Location Temp. Windchill Dew Point Humidity Wind Precip. Elev Updated Type